Time;durP1;ratioP1;P1;durP2;ratioP2;P2;SDS_P1;SDS_P2;PMS_P1;PMS_P2;Temp;Humidity;BMP_temperature;BMP_pressure;BME280_temperature;BME280_humidity;BME280_pressure;Samples;Min_cycle;Max_cycle;Signal;HPM_P1;HPM_P2
2021/05/31 00:00:31;;;;;;;2.70;2.33;;;;;;;12.44;49.47;96729.56;5011815;28;20439;-91
2021/05/31 00:02:57;;;;;;;4.30;2.60;;;;;;;12.40;49.71;96720.38;5019134;28;20489;-90
2021/05/31 00:05:25;;;;;;;7.20;2.87;;;;;;;12.35;49.47;96725.41;5018938;28;20432;-90
2021/05/31 00:07:52;;;;;;;5.63;2.67;;;;;;;12.41;49.40;96719.81;5010007;28;20558;-93
2021/05/31 00:10:19;;;;;;;4.83;2.67;;;;;;;12.35;50.16;96708.47;4998911;28;20507;-92
2021/05/31 00:12:48;;;;;;;4.53;2.37;;;;;;;12.31;50.02;96713.50;4998189;28;20457;-92
2021/05/31 00:15:14;;;;;;;7.10;3.80;;;;;;;12.32;49.68;96710.28;4997185;28;21004;-90
2021/05/31 00:17:41;;;;;;;3.53;2.50;;;;;;;12.22;50.70;96706.66;4997558;28;20457;-90
2021/05/31 00:20:10;;;;;;;4.10;2.47;;;;;;;12.16;50.29;96713.53;4997027;28;20938;-91
2021/05/31 00:22:36;;;;;;;2.37;2.17;;;;;;;12.14;50.61;96707.94;4998308;28;20442;-94
2021/05/31 00:25:04;;;;;;;3.07;2.50;;;;;;;12.18;50.25;96706.31;4998016;28;20511;-93
2021/05/31 00:27:30;;;;;;;4.30;2.83;;;;;;;12.26;50.19;96700.91;4997478;28;20800;-93
2021/05/31 00:29:56;;;;;;;5.13;2.83;;;;;;;12.14;50.13;96689.00;4998028;28;20441;-91
2021/05/31 00:32:22;;;;;;;2.60;2.40;;;;;;;12.13;50.52;96701.06;4997775;28;20453;-90
2021/05/31 00:34:49;;;;;;;5.63;2.80;;;;;;;12.21;50.57;96696.41;4996973;28;20519;-90
2021/05/31 00:37:15;;;;;;;2.80;2.60;;;;;;;12.18;50.68;96692.06;4996295;28;20449;-90
2021/05/31 00:39:41;;;;;;;5.57;2.67;;;;;;;12.08;50.32;96688.47;4996928;28;20430;-90
2021/05/31 00:42:09;;;;;;;5.93;3.40;;;;;;;12.04;51.16;96685.41;4998295;28;20464;-91
2021/05/31 00:44:35;;;;;;;6.37;3.17;;;;;;;12.01;51.36;96686.47;4997174;28;21029;-93
2021/05/31 00:47:01;;;;;;;6.03;3.00;;;;;;;12.04;51.39;96685.41;4997132;28;20469;-92
2021/05/31 00:49:35;;;;;;;4.93;3.03;;;;;;;11.99;51.45;96680.91;4997594;28;20458;-92
2021/05/31 00:52:01;;;;;;;6.17;3.37;;;;;;;11.88;51.43;96684.66;4997782;28;20418;-92
2021/05/31 00:54:27;;;;;;;9.83;3.70;;;;;;;11.91;51.53;96682.88;4997719;28;20593;-91
2021/05/31 00:56:53;;;;;;;5.73;3.80;;;;;;;11.71;52.31;96674.41;4998313;28;20507;-91
2021/05/31 00:59:20;;;;;;;4.07;3.07;;;;;;;11.74;52.52;96684.16;5001457;28;20521;-91
2021/05/31 01:01:48;;;;;;;4.50;3.57;;;;;;;11.59;52.84;96675.97;5016163;28;20436;-91
2021/05/31 01:04:14;;;;;;;5.23;3.57;;;;;;;11.54;53.00;96684.97;5017780;28;20473;-91
2021/05/31 01:06:49;;;;;;;6.70;2.87;;;;;;;11.50;53.08;96679.19;5018027;28;20427;-91
2021/05/31 01:09:17;;;;;;;4.30;3.30;;;;;;;11.47;53.04;96669.47;5018142;28;20431;-92
2021/05/31 01:11:53;;;;;;;3.97;2.87;;;;;;;11.44;53.54;96667.84;5018196;28;20548;-91
2021/05/31 01:14:29;;;;;;;3.97;2.97;;;;;;;11.38;53.89;96667.28;5002566;28;20476;-92
2021/05/31 01:17:01;;;;;;;8.83;3.40;;;;;;;11.38;53.70;96670.00;4998502;28;20837;-93
2021/05/31 01:19:47;;;;;;;6.20;3.20;;;;;;;11.40;54.19;96664.06;4998653;28;20392;-92
2021/05/31 01:22:15;;;;;;;3.37;3.07;;;;;;;11.27;54.18;96668.38;4998362;28;20500;-90
2021/05/31 01:25:03;;;;;;;4.90;3.27;;;;;;;11.24;54.06;96666.00;5013381;28;20491;-91
2021/05/31 01:27:38;;;;;;;3.40;3.00;;;;;;;11.27;53.67;96665.66;5019661;28;20405;-92
2021/05/31 01:30:09;;;;;;;4.73;3.20;;;;;;;11.18;54.63;96660.06;5022006;28;20413;-91
2021/05/31 01:32:38;;;;;;;6.10;3.27;;;;;;;11.22;53.80;96660.41;5021795;28;21470;-92
2021/05/31 01:35:09;;;;;;;5.00;2.80;;;;;;;11.19;53.90;96670.31;5006992;28;20428;-90
2021/05/31 01:37:39;;;;;;;3.00;2.27;;;;;;;11.17;54.20;96664.00;5000755;28;20412;-91
2021/05/31 01:40:08;;;;;;;4.67;3.17;;;;;;;11.16;53.89;96662.56;5000907;28;20440;-92
2021/05/31 01:42:35;;;;;;;3.47;2.53;;;;;;;11.22;54.30;96658.44;5000047;28;20558;-91
2021/05/31 01:45:02;;;;;;;2.60;2.40;;;;;;;11.13;54.52;96658.22;5001269;28;20581;-92
2021/05/31 01:47:31;;;;;;;7.33;2.50;;;;;;;11.07;55.00;96652.28;5001187;28;20540;-93
2021/05/31 01:49:57;;;;;;;6.73;2.83;;;;;;;11.01;54.97;96657.13;5002447;28;20470;-92
2021/05/31 01:52:24;;;;;;;3.37;2.40;;;;;;;11.01;54.47;96657.13;5002041;28;20880;-93
2021/05/31 01:54:53;;;;;;;3.00;2.53;;;;;;;11.02;54.92;96645.78;5002174;28;20920;-93
2021/05/31 01:57:21;;;;;;;5.20;2.70;;;;;;;11.03;54.51;96649.19;5001004;28;20456;-92
2021/05/31 01:59:47;;;;;;;7.03;2.73;;;;;;;10.95;55.30;96649.19;5000924;28;20449;-92
2021/05/31 02:02:14;;;;;;;4.40;2.97;;;;;;;10.99;54.81;96646.13;5000029;28;20880;-93
2021/05/31 02:04:41;;;;;;;4.77;2.60;;;;;;;11.00;55.38;96655.66;4999732;28;20558;-88
2021/05/31 02:07:07;;;;;;;4.20;2.53;;;;;;;10.88;55.28;96647.16;4999399;28;20524;-90
2021/05/31 02:09:34;;;;;;;5.27;3.17;;;;;;;10.85;55.88;96639.41;5000238;28;20447;-90
2021/05/31 02:12:06;;;;;;;3.80;2.90;;;;;;;10.80;55.92;96637.59;4999693;28;20475;-90
2021/05/31 02:14:42;;;;;;;3.70;3.30;;;;;;;10.74;56.55;96635.06;4999657;28;20473;-89
2021/05/31 02:17:16;;;;;;;6.27;2.90;;;;;;;10.73;56.29;96639.03;4999645;28;20430;-89
2021/05/31 02:19:45;;;;;;;7.80;2.90;;;;;;;10.69;56.14;96633.97;4999928;28;20486;-89
2021/05/31 02:22:14;;;;;;;4.93;3.10;;;;;;;10.79;56.01;96641.56;4999516;28;20979;-89
2021/05/31 02:24:41;;;;;;;3.80;2.60;;;;;;;10.79;55.72;96641.56;4999341;28;21072;-89
2021/05/31 02:27:08;;;;;;;3.83;2.43;;;;;;;10.72;56.46;96640.25;4998918;28;20455;-89
2021/05/31 02:29:34;;;;;;;4.47;2.70;;;;;;;10.73;56.56;96642.44;4999603;28;20505;-89
2021/05/31 02:32:00;;;;;;;4.43;2.80;;;;;;;10.65;55.98;96630.19;5000076;28;20860;-92
2021/05/31 02:34:28;;;;;;;2.40;2.20;;;;;;;10.58;56.30;96639.69;5001826;28;20508;-92
2021/05/31 02:36:56;;;;;;;4.50;3.10;;;;;;;10.62;56.65;96628.53;5000321;28;20566;-90
2021/05/31 02:39:23;;;;;;;5.90;3.10;;;;;;;10.56;56.70;96636.78;4999867;28;20832;-89
2021/05/31 02:41:50;;;;;;;2.67;2.47;;;;;;;10.49;57.30;96639.44;4998873;28;20492;-89
2021/05/31 02:44:16;;;;;;;5.10;3.13;;;;;;;10.56;57.21;96641.44;4999311;28;20484;-89
2021/05/31 02:46:42;;;;;;;5.00;3.20;;;;;;;10.48;57.37;96636.03;4998606;28;20443;-90
2021/05/31 02:49:09;;;;;;;5.40;2.53;;;;;;;10.52;57.22;96639.13;4998159;28;20501;-89
2021/05/31 02:51:35;;;;;;;5.23;2.83;;;;;;;10.46;57.32;96635.81;4999247;28;20511;-89
2021/05/31 02:54:02;;;;;;;4.63;3.10;;;;;;;10.43;57.43;96636.88;4998997;28;20642;-90
2021/05/31 02:56:29;;;;;;;4.57;2.87;;;;;;;10.39;58.03;96636.53;4998335;28;20400;-88
2021/05/31 02:58:55;;;;;;;4.90;3.07;;;;;;;10.33;58.32;96635.22;4998799;28;20908;-89
2021/05/31 03:01:21;;;;;;;4.77;3.33;;;;;;;10.30;58.53;96642.41;4998919;28;20448;-89
2021/05/31 03:03:47;;;;;;;4.93;3.30;;;;;;;10.25;58.37;96635.19;4998942;28;20465;-89
2021/05/31 03:06:13;;;;;;;5.60;3.60;;;;;;;10.30;58.40;96634.31;5001353;28;20476;-92
2021/05/31 03:08:39;;;;;;;6.87;3.27;;;;;;;10.27;58.84;96640.06;5001436;28;20448;-92
2021/05/31 03:11:07;;;;;;;5.23;3.23;;;;;;;10.25;58.85;96632.47;5001688;28;20476;-92
2021/05/31 03:13:33;;;;;;;4.33;3.30;;;;;;;10.20;59.14;96634.09;5000647;28;20827;-93
2021/05/31 03:15:59;;;;;;;5.80;3.07;;;;;;;10.10;59.54;96638.47;5001326;28;20875;-92
2021/05/31 03:18:25;;;;;;;3.27;2.80;;;;;;;10.16;59.85;96633.69;5002440;28;20491;-92
2021/05/31 03:20:51;;;;;;;4.20;2.77;;;;;;;10.20;59.24;96644.16;5001501;28;20484;-91
2021/05/31 03:23:17;;;;;;;4.77;2.97;;;;;;;10.07;59.96;96636.84;5000549;28;20495;-91
2021/05/31 03:25:43;;;;;;;3.50;2.50;;;;;;;10.12;59.96;96641.34;5001043;28;20508;-92
2021/05/31 03:28:11;;;;;;;7.30;2.93;;;;;;;10.06;60.07;96646.19;5000468;28;20422;-92
2021/05/31 03:30:37;;;;;;;6.80;2.97;;;;;;;10.05;59.94;96642.06;4999478;28;20945;-91
2021/05/31 03:33:04;;;;;;;2.80;2.47;;;;;;;10.12;60.18;96643.31;5001247;28;20419;-91
2021/05/31 03:35:30;;;;;;;5.90;2.80;;;;;;;10.33;59.75;96641.34;4999322;28;20548;-91
2021/05/31 03:37:56;;;;;;;4.27;2.47;;;;;;;10.54;59.25;96644.69;4999980;28;20539;-90
2021/05/31 03:40:23;;;;;;;6.83;3.03;;;;;;;10.75;58.83;96639.19;5000000;28;20481;-90
2021/05/31 03:42:49;;;;;;;8.40;3.00;;;;;;;10.90;57.74;96655.44;4999895;28;20449;-90
2021/05/31 03:45:17;;;;;;;3.37;2.13;;;;;;;11.06;57.63;96640.00;4999624;28;20573;-91
2021/05/31 03:47:43;;;;;;;4.33;2.73;;;;;;;11.28;57.34;96642.06;5000278;28;20453;-91
2021/05/31 03:50:10;;;;;;;4.27;2.67;;;;;;;11.52;56.34;96646.25;4999417;28;20476;-90
2021/05/31 03:52:37;;;;;;;6.40;3.20;;;;;;;11.77;55.85;96647.91;5000552;28;20453;-90
2021/05/31 03:55:03;;;;;;;4.10;2.87;;;;;;;11.84;55.72;96648.47;4999774;28;20471;-91
2021/05/31 03:57:29;;;;;;;4.30;3.17;;;;;;;12.01;55.34;96654.03;5001953;28;21105;-90
2021/05/31 03:59:56;;;;;;;4.17;2.87;;;;;;;12.38;54.63;96658.66;5004613;28;20496;-90
2021/05/31 04:02:24;;;;;;;3.17;2.77;;;;;;;12.35;54.74;96655.06;5000527;28;20438;-90
2021/05/31 04:04:52;;;;;;;7.07;3.30;;;;;;;12.63;53.77;96656.06;5011383;28;20504;-88
2021/05/31 04:12:52;;;;;;;4.57;2.93;;;;;;;13.31;52.52;96661.94;5000848;28;20448;-90
2021/05/31 04:15:18;;;;;;;3.80;2.77;;;;;;;13.47;51.89;96659.16;4999846;28;20488;-91
2021/05/31 04:17:46;;;;;;;5.10;3.07;;;;;;;13.55;52.07;96652.41;4998337;28;20582;-89
2021/05/31 04:20:13;;;;;;;4.53;3.60;;;;;;;13.64;51.65;96648.38;4998213;28;20463;-90
2021/05/31 04:22:42;;;;;;;3.43;3.07;;;;;;;14.04;50.77;96650.94;4999182;28;20536;-90
2021/05/31 04:25:10;;;;;;;3.07;2.77;;;;;;;14.11;50.44;96652.88;4998778;28;20491;-90
2021/05/31 04:27:36;;;;;;;4.40;3.40;;;;;;;14.31;50.28;96657.94;5001186;28;20462;-91
2021/05/31 04:30:03;;;;;;;5.20;3.20;;;;;;;14.58;49.93;96655.34;5000521;28;20949;-90
2021/05/31 04:32:29;;;;;;;4.50;4.07;;;;;;;14.92;48.69;96660.72;4999751;28;20504;-90
2021/05/31 04:34:57;;;;;;;4.13;3.40;;;;;;;15.06;48.71;96655.69;4998426;28;20533;-90
2021/05/31 04:37:23;;;;;;;5.00;3.50;;;;;;;15.25;48.55;96658.53;5000294;28;20441;-90
2021/05/31 04:39:49;;;;;;;6.17;3.70;;;;;;;15.09;48.21;96657.28;4999973;28;20469;-92
2021/05/31 04:42:15;;;;;;;4.83;3.30;;;;;;;15.29;48.24;96655.38;5000477;28;20459;-93
2021/05/31 04:44:41;;;;;;;5.20;3.80;;;;;;;15.78;46.62;96665.22;4999067;28;21076;-92
2021/05/31 04:47:08;;;;;;;3.73;2.90;;;;;;;16.02;46.58;96667.00;4998897;28;20513;-93
2021/05/31 04:49:34;;;;;;;3.37;3.07;;;;;;;16.11;46.02;96660.88;4999129;28;20449;-91
2021/05/31 04:52:02;;;;;;;4.50;3.20;;;;;;;15.84;46.49;96662.94;4999169;28;20535;-92
2021/05/31 04:54:28;;;;;;;4.93;3.30;;;;;;;16.31;45.99;96656.19;4999262;28;20556;-92
2021/05/31 04:56:54;;;;;;;6.07;3.70;;;;;;;16.31;45.80;96664.34;4999361;28;20868;-92
2021/05/31 04:59:21;;;;;;;5.10;2.93;;;;;;;16.54;45.11;96665.41;4999212;28;20480;-93
2021/05/31 05:01:47;;;;;;;3.93;2.97;;;;;;;16.75;44.64;96670.31;5001441;28;20441;-91
2021/05/31 05:04:13;;;;;;;3.73;3.37;;;;;;;16.79;44.96;96669.88;5003932;28;20516;-93
2021/05/31 05:06:39;;;;;;;4.57;2.90;;;;;;;16.94;44.05;96675.75;5003519;28;21004;-93
2021/05/31 05:09:07;;;;;;;6.97;3.87;;;;;;;16.88;44.61;96680.06;5002458;28;20456;-93
2021/05/31 05:11:33;;;;;;;4.87;3.07;;;;;;;17.19;43.89;96683.59;5003868;28;20480;-93
2021/05/31 05:14:00;;;;;;;4.10;3.33;;;;;;;17.38;43.84;96682.84;5003353;28;20480;-92
2021/05/31 05:16:27;;;;;;;7.00;3.50;;;;;;;17.41;43.58;96684.41;5003647;28;21017;-92
2021/05/31 05:18:54;;;;;;;6.50;3.93;;;;;;;17.61;43.02;96685.81;5004819;28;20453;-92
2021/05/31 05:21:20;;;;;;;5.50;3.27;;;;;;;17.41;43.30;96685.16;5003732;28;20460;-92
2021/05/31 05:23:48;;;;;;;6.23;3.60;;;;;;;17.67;42.90;96680.06;5002656;28;20496;-92
2021/05/31 05:26:16;;;;;;;3.80;3.50;;;;;;;17.26;43.73;96673.84;5001772;28;20477;-90
2021/05/31 05:28:50;;;;;;;3.40;3.10;;;;;;;17.33;43.94;96667.47;5002406;28;20516;-91
2021/05/31 05:31:17;;;;;;;4.87;3.20;;;;;;;17.84;42.19;96674.38;5002280;28;20507;-90
2021/05/31 05:33:44;;;;;;;5.00;3.87;;;;;;;17.97;42.58;96671.88;5002362;28;20465;-90
2021/05/31 05:36:21;;;;;;;7.30;3.50;;;;;;;18.66;41.32;96674.38;5001939;28;20464;-91
2021/05/31 05:39:13;;;;;;;4.90;3.73;;;;;;;19.05;39.61;96669.28;5006234;28;20428;-91
2021/05/31 05:41:50;;;;;;;5.10;3.23;;;;;;;18.96;40.30;96675.53;5020959;28;20464;-91
2021/05/31 05:47:41;;;;;;;4.73;3.37;;;;;;;19.60;38.54;96678.84;5000963;28;20437;-92
2021/05/31 05:50:00;;;;;;;5.40;3.70;;;;;;;20.15;38.30;96679.28;5020844;28;20429;-90
2021/05/31 05:52:26;;;;;;;3.70;3.03;;;;;;;20.33;37.63;96683.13;5021234;28;20433;-91
2021/05/31 05:54:52;;;;;;;6.53;4.00;;;;;;;20.25;37.74;96688.13;5013332;28;20843;-92
2021/05/31 05:57:19;;;;;;;4.40;3.40;;;;;;;19.58;37.85;96694.41;5004488;28;20507;-91
2021/05/31 05:59:46;;;;;;;3.43;3.13;;;;;;;19.08;39.34;96676.28;5004746;28;20476;-92
2021/05/31 06:02:12;;;;;;;3.93;3.03;;;;;;;19.06;39.66;96683.66;5003241;28;21021;-92
2021/05/31 06:04:39;;;;;;;6.90;3.23;;;;;;;19.84;39.30;96689.78;5001935;28;20477;-91
2021/05/31 06:07:06;;;;;;;3.10;2.80;;;;;;;20.28;37.26;96692.44;5003586;28;20437;-91
2021/05/31 06:09:32;;;;;;;7.03;3.47;;;;;;;20.19;38.01;96693.97;5005181;28;20441;-92
2021/05/31 06:11:58;;;;;;;3.20;2.83;;;;;;;19.96;38.35;96693.97;5020070;28;20477;-90
2021/05/31 06:14:25;;;;;;;4.00;3.30;;;;;;;19.62;37.83;96700.13;5020062;28;20487;-91
2021/05/31 06:16:52;;;;;;;5.73;3.60;;;;;;;18.31;39.84;96686.38;5020079;28;20480;-92
2021/05/31 06:19:18;;;;;;;3.37;2.80;;;;;;;18.27;39.75;96691.56;5020220;28;20468;-90
2021/05/31 06:21:44;;;;;;;6.93;3.07;;;;;;;18.66;39.81;96698.97;5017937;28;20509;-91
2021/05/31 06:24:11;;;;;;;5.07;3.20;;;;;;;19.30;39.14;96703.59;5017899;28;20557;-91
2021/05/31 06:26:37;;;;;;;4.57;4.10;;;;;;;20.04;38.27;96696.47;5020272;28;20468;-91
2021/05/31 06:29:04;;;;;;;5.33;3.30;;;;;;;19.84;37.80;96706.94;5019861;28;20429;-93
2021/05/31 06:31:32;;;;;;;3.30;3.00;;;;;;;20.22;37.45;96711.22;5020384;28;20449;-92
2021/05/31 06:33:58;;;;;;;4.47;3.07;;;;;;;20.53;37.37;96708.22;5020481;28;20477;-92
2021/05/31 06:36:26;;;;;;;5.80;3.60;;;;;;;20.56;37.11;96694.03;5012199;28;20901;-89
2021/05/31 06:38:54;;;;;;;4.87;3.77;;;;;;;20.27;36.95;96696.47;5004425;28;20544;-90
2021/05/31 06:41:21;;;;;;;6.13;3.70;;;;;;;20.71;37.07;96696.25;5003187;28;20489;-90
2021/05/31 06:43:49;;;;;;;4.50;3.60;;;;;;;20.94;36.14;96700.25;5004057;28;20492;-91
2021/05/31 06:46:55;;;;;;;5.00;3.90;;;;;;;21.23;36.04;96700.50;5004456;28;20517;-91
2021/05/31 06:49:23;;;;;;;6.30;4.37;;;;;;;20.80;37.03;96697.44;5004509;28;20449;-89
2021/05/31 06:51:49;;;;;;;6.73;4.20;;;;;;;20.87;36.82;96688.22;5005335;28;20437;-91
2021/05/31 06:54:15;;;;;;;7.17;4.70;;;;;;;20.64;37.03;96689.00;5005770;28;20492;-90
2021/05/31 06:56:42;;;;;;;6.10;3.60;;;;;;;20.02;37.81;96690.84;5003885;28;20643;-91
2021/05/31 06:59:08;;;;;;;3.43;3.10;;;;;;;20.08;37.94;96686.44;5005251;28;20452;-94
2021/05/31 07:01:34;;;;;;;8.67;3.80;;;;;;;20.52;37.45;96693.09;5006800;28;20445;-94
2021/05/31 07:04:02;;;;;;;4.30;3.27;;;;;;;19.82;38.10;96687.66;5006405;28;20496;-94
2021/05/31 07:06:28;;;;;;;3.17;2.43;;;;;;;19.55;36.96;96681.91;5008957;28;20475;-93
2021/05/31 07:08:55;;;;;;;5.17;3.03;;;;;;;20.17;37.18;96685.59;5007191;28;20979;-91
2021/05/31 07:11:23;;;;;;;7.20;3.73;;;;;;;20.04;37.63;96680.03;5006108;28;20443;-91
2021/05/31 07:13:49;;;;;;;4.13;2.90;;;;;;;19.95;37.34;96681.59;5008023;28;20477;-91
2021/05/31 07:16:17;;;;;;;6.03;4.27;;;;;;;20.01;37.53;96681.22;5005976;28;20429;-91
2021/05/31 07:18:43;;;;;;;3.57;2.77;;;;;;;19.78;36.42;96673.72;5008315;28;20475;-91
2021/05/31 07:21:11;;;;;;;7.00;2.97;;;;;;;19.55;37.36;96681.91;5008454;28;20452;-91
2021/05/31 07:23:37;;;;;;;4.03;2.67;;;;;;;19.83;36.01;96688.38;5007275;28;20472;-90
2021/05/31 07:26:06;;;;;;;5.73;4.10;;;;;;;18.91;36.80;96678.63;5007710;28;20444;-90
2021/05/31 07:28:32;;;;;;;2.30;2.10;;;;;;;19.39;36.25;96680.91;5010922;28;20444;-91
2021/05/31 07:30:59;;;;;;;2.60;2.40;;;;;;;18.52;37.28;96694.59;5010760;28;20449;-90
2021/05/31 07:33:26;;;;;;;3.23;2.60;;;;;;;18.34;37.85;96671.53;5010491;28;20429;-90
2021/05/31 07:35:56;;;;;;;4.83;3.07;;;;;;;18.73;37.45;96677.47;5008642;28;20460;-90
2021/05/31 07:38:25;;;;;;;3.13;2.43;;;;;;;19.06;36.70;96672.72;5007468;28;20449;-91
2021/05/31 07:40:52;;;;;;;2.90;2.33;;;;;;;19.28;36.25;96674.09;5007614;28;20453;-91
2021/05/31 07:43:18;;;;;;;3.70;2.30;;;;;;;19.58;36.00;96680.72;5006512;28;20453;-90
2021/05/31 07:45:45;;;;;;;4.33;2.30;;;;;;;19.20;35.61;96677.03;5003421;28;20543;-90
2021/05/31 07:48:11;;;;;;;2.20;2.00;;;;;;;18.84;36.00;96691.19;5005994;28;20472;-93
2021/05/31 07:50:37;;;;;;;8.57;2.77;;;;;;;18.94;36.22;96683.63;5004041;28;20441;-94
2021/05/31 07:53:04;;;;;;;3.60;2.43;;;;;;;18.76;35.92;96685.22;5007338;28;20497;-93
2021/05/31 07:55:31;;;;;;;4.20;2.70;;;;;;;18.68;35.07;96696.34;5006325;28;20547;-93
2021/05/31 07:57:57;;;;;;;3.30;2.50;;;;;;;18.00;34.74;96691.84;5005681;28;20448;-92
2021/05/31 08:00:24;;;;;;;2.50;2.30;;;;;;;18.05;35.81;96685.34;5006074;28;20516;-93
2021/05/31 08:02:51;;;;;;;3.60;2.37;;;;;;;18.60;36.19;96679.44;5007268;28;20460;-92
2021/05/31 08:05:19;;;;;;;4.80;2.70;;;;;;;18.61;36.59;96682.88;5004298;28;20529;-91
2021/05/31 08:07:46;;;;;;;4.13;2.50;;;;;;;18.44;36.72;96686.56;5002976;28;20457;-91
2021/05/31 08:10:14;;;;;;;4.10;2.40;;;;;;;18.77;36.44;96677.72;5002495;28;20440;-92
2021/05/31 08:12:42;;;;;;;2.10;1.90;;;;;;;18.53;34.99;96691.28;5002968;28;20481;-90
2021/05/31 08:15:10;;;;;;;2.57;2.30;;;;;;;18.66;35.64;96670.91;5003717;28;20928;-90
2021/05/31 08:17:36;;;;;;;2.40;2.13;;;;;;;18.40;36.28;96671.91;5004807;28;20433;-90
2021/05/31 08:20:05;;;;;;;3.07;2.53;;;;;;;18.56;36.01;96679.19;5001417;28;20497;-90
2021/05/31 08:22:31;;;;;;;4.33;2.43;;;;;;;18.71;35.46;96667.13;5000924;28;20469;-91
2021/05/31 08:24:57;;;;;;;3.00;2.47;;;;;;;18.13;35.90;96661.31;5002931;28;20489;-92
2021/05/31 08:27:23;;;;;;;4.67;2.60;;;;;;;18.47;35.67;96673.75;5002766;28;20468;-91
2021/05/31 08:29:51;;;;;;;3.50;2.30;;;;;;;18.28;35.70;96676.59;5003137;28;20464;-94
2021/05/31 08:32:18;;;;;;;3.10;2.07;;;;;;;18.29;34.87;96678.03;5004958;28;20528;-94
2021/05/31 08:34:44;;;;;;;2.37;2.17;;;;;;;18.38;36.42;96675.25;5002433;28;20473;-93
2021/05/31 08:37:10;;;;;;;3.20;2.40;;;;;;;17.90;36.06;96672.78;5004703;28;20480;-94
2021/05/31 08:39:36;;;;;;;7.60;3.20;;;;;;;18.10;36.89;96660.47;5005566;28;20448;-93
2021/05/31 08:42:03;;;;;;;3.33;2.30;;;;;;;18.33;36.79;96672.81;5008587;28;20448;-93
2021/05/31 08:44:31;;;;;;;4.53;2.33;;;;;;;17.76;37.64;96660.91;5002818;28;21081;-90
2021/05/31 08:47:02;;;;;;;6.77;2.80;;;;;;;17.95;38.22;96668.31;5001932;28;20441;-90
2021/05/31 08:49:29;;;;;;;3.47;2.30;;;;;;;17.58;38.07;96674.06;5002179;28;20513;-89
2021/05/31 08:51:55;;;;;;;3.63;2.90;;;;;;;17.45;38.86;96674.47;5006594;28;20477;-93
2021/05/31 08:54:21;;;;;;;2.80;2.60;;;;;;;17.32;39.73;96660.63;5004561;28;20454;-89
2021/05/31 08:56:49;;;;;;;3.40;3.00;;;;;;;17.54;39.54;96656.66;5000711;28;20469;-91
2021/05/31 08:59:16;;;;;;;4.03;2.57;;;;;;;17.49;39.61;96658.41;5002943;28;20548;-94
2021/05/31 09:01:42;;;;;;;4.03;2.47;;;;;;;17.50;39.58;96664.56;5004204;28;20445;-90
2021/05/31 09:04:13;;;;;;;3.00;2.70;;;;;;;17.37;39.21;96656.84;5001225;28;20477;-90
2021/05/31 09:06:39;;;;;;;3.00;2.53;;;;;;;17.10;39.21;96654.34;5007790;28;20461;-90
2021/05/31 09:09:05;;;;;;;2.43;2.20;;;;;;;17.09;39.85;96655.63;5005736;28;20429;-90
2021/05/31 09:11:33;;;;;;;3.67;2.70;;;;;;;17.33;39.89;96659.28;5000305;28;20456;-90
2021/05/31 09:14:00;;;;;;;2.47;2.27;;;;;;;17.26;38.31;96663.63;5001616;28;20447;-90
2021/05/31 09:16:27;;;;;;;3.17;1.97;;;;;;;17.26;38.59;96655.44;5002209;28;20445;-90
2021/05/31 09:18:55;;;;;;;2.87;2.30;;;;;;;17.50;38.16;96653.66;5001120;28;20444;-93
2021/05/31 09:21:25;;;;;;;6.90;2.90;;;;;;;17.51;39.21;96666.72;5004302;28;20430;-92
2021/05/31 09:23:54;;;;;;;3.90;2.40;;;;;;;17.38;39.08;96659.03;5009773;28;20483;-92
2021/05/31 09:26:21;;;;;;;2.83;2.63;;;;;;;17.32;39.34;96664.03;5009749;28;20428;-90
2021/05/31 09:28:58;;;;;;;4.90;2.40;;;;;;;17.36;39.34;96655.41;5017194;28;20449;-92
2021/05/31 09:31:26;;;;;;;2.53;2.27;;;;;;;17.24;39.88;96662.78;5015398;28;20508;-92
2021/05/31 09:34:11;;;;;;;3.20;2.50;;;;;;;17.30;39.53;96663.19;5015631;28;20469;-91
2021/05/31 09:36:50;;;;;;;3.13;2.70;;;;;;;17.30;39.65;96657.72;5007951;28;20421;-92
2021/05/31 09:39:16;;;;;;;2.83;2.50;;;;;;;17.38;39.59;96658.28;5002720;28;20433;-92
2021/05/31 09:41:43;;;;;;;2.70;2.50;;;;;;;17.57;39.85;96652.81;5001303;28;20457;-91
2021/05/31 09:44:10;;;;;;;2.77;2.57;;;;;;;17.66;37.87;96654.78;5001280;28;20500;-92
2021/05/31 09:46:39;;;;;;;6.77;2.80;;;;;;;17.63;37.52;96650.50;5000770;28;20865;-92
2021/05/31 09:49:17;;;;;;;3.07;2.77;;;;;;;17.53;37.39;96669.59;5003813;28;20433;-92
2021/05/31 09:51:57;;;;;;;2.37;2.17;;;;;;;17.71;37.15;96645.56;5004227;28;20527;-91
2021/05/31 09:54:31;;;;;;;2.90;2.23;;;;;;;17.95;36.93;96647.16;5004702;28;20524;-91
2021/05/31 09:56:58;;;;;;;3.80;3.00;;;;;;;18.04;37.21;96657.31;5005380;28;20436;-91
2021/05/31 09:59:27;;;;;;;3.27;2.63;;;;;;;17.94;37.16;96656.66;5004362;28;20476;-91
2021/05/31 10:01:57;;;;;;;2.20;2.00;;;;;;;17.87;37.18;96657.56;5010364;28;20481;-92
2021/05/31 10:04:31;;;;;;;3.50;2.53;;;;;;;17.92;36.95;96653.06;5005433;28;20512;-91
2021/05/31 10:07:12;;;;;;;3.13;2.77;;;;;;;17.84;37.56;96647.81;5005337;28;20441;-92
2021/05/31 10:09:39;;;;;;;4.03;2.43;;;;;;;17.94;37.33;96645.75;5004614;28;20433;-91
2021/05/31 10:12:07;;;;;;;6.17;2.87;;;;;;;17.74;37.17;96641.66;5003479;28;20476;-92
2021/05/31 10:14:33;;;;;;;3.80;2.53;;;;;;;17.68;37.13;96630.34;5003209;28;20556;-90
2021/05/31 10:17:00;;;;;;;3.63;2.47;;;;;;;17.93;37.97;96659.97;5005365;28;20476;-90
2021/05/31 10:19:27;;;;;;;3.40;3.10;;;;;;;17.84;38.33;96639.59;5004218;28;20519;-92
2021/05/31 10:21:53;;;;;;;3.70;2.80;;;;;;;17.98;37.58;96651.47;5004242;28;20955;-93
2021/05/31 10:24:20;;;;;;;3.40;2.40;;;;;;;17.94;37.49;96643.00;5006898;28;20576;-92
2021/05/31 10:26:47;;;;;;;2.93;2.20;;;;;;;17.79;37.84;96642.66;5007167;28;20449;-93
2021/05/31 10:29:14;;;;;;;3.87;3.20;;;;;;;17.95;37.09;96647.16;5003613;28;20477;-92
2021/05/31 10:31:43;;;;;;;3.87;2.97;;;;;;;17.71;37.63;96634.63;5005644;28;20496;-94
2021/05/31 10:34:18;;;;;;;4.10;2.43;;;;;;;18.00;37.48;96626.31;5007132;28;20465;-94
2021/05/31 10:36:49;;;;;;;3.20;2.90;;;;;;;17.86;37.20;96633.56;5006938;28;20445;-94
2021/05/31 10:39:24;;;;;;;4.13;2.70;;;;;;;17.87;37.29;96629.53;5008147;28;20429;-93
2021/05/31 10:41:50;;;;;;;2.70;2.27;;;;;;;18.09;36.91;96634.44;5007488;28;20440;-93
2021/05/31 10:44:17;;;;;;;3.67;2.40;;;;;;;18.42;35.99;96631.06;5008822;28;20511;-93
2021/05/31 10:46:44;;;;;;;3.40;2.53;;;;;;;18.57;35.97;96625.22;5005791;28;20469;-94
2021/05/31 10:49:17;;;;;;;3.07;2.77;;;;;;;18.89;36.70;96624.50;5005930;28;20449;-92
2021/05/31 10:51:43;;;;;;;2.90;2.60;;;;;;;18.74;36.03;96622.19;5006879;28;20789;-93
2021/05/31 10:54:10;;;;;;;3.27;2.60;;;;;;;18.59;35.13;96625.34;5007263;28;20457;-94
2021/05/31 10:56:41;;;;;;;5.57;3.00;;;;;;;18.57;35.82;96617.75;5004544;28;20860;-90
2021/05/31 10:59:08;;;;;;;4.53;2.70;;;;;;;18.64;36.12;96629.75;5004908;28;20464;-91
2021/05/31 11:01:40;;;;;;;5.43;2.90;;;;;;;18.52;36.12;96629.00;5002753;28;20464;-90
2021/05/31 11:04:15;;;;;;;2.97;2.40;;;;;;;18.65;35.68;96626.44;5005797;28;20503;-91
2021/05/31 11:06:44;;;;;;;4.10;2.93;;;;;;;18.49;36.05;96619.22;5007469;28;20445;-92
2021/05/31 11:09:12;;;;;;;2.30;2.10;;;;;;;18.65;35.59;96625.72;5008979;28;20477;-94
2021/05/31 11:11:44;;;;;;;3.57;2.87;;;;;;;18.78;34.07;96636.13;5005560;28;20527;-90
2021/05/31 11:14:12;;;;;;;3.07;2.20;;;;;;;18.50;35.38;96626.84;5006425;28;20530;-91
2021/05/31 11:17:04;;;;;;;2.70;2.50;;;;;;;18.73;35.65;96623.50;5000458;28;20532;-90
2021/05/31 11:19:36;;;;;;;3.97;2.50;;;;;;;18.71;36.19;96620.63;5002828;28;20467;-90
2021/05/31 11:22:14;;;;;;;2.63;2.33;;;;;;;18.75;33.63;96623.63;4996190;28;20440;-90
2021/05/31 11:24:41;;;;;;;4.73;2.60;;;;;;;18.69;34.21;96623.97;5004744;28;20484;-93
2021/05/31 11:27:10;;;;;;;4.50;2.70;;;;;;;18.75;35.15;96628.38;5005145;28;20883;-93
2021/05/31 11:29:36;;;;;;;2.57;2.30;;;;;;;18.69;34.39;96623.25;5004194;28;20520;-93
2021/05/31 11:32:03;;;;;;;2.67;2.43;;;;;;;18.89;35.17;96621.06;5004195;28;20448;-92
2021/05/31 11:34:30;;;;;;;4.43;2.50;;;;;;;19.15;34.84;96628.84;5002780;28;20484;-91
2021/05/31 11:37:00;;;;;;;3.10;2.83;;;;;;;19.04;34.68;96631.56;5003787;28;20437;-90
2021/05/31 11:39:32;;;;;;;4.60;2.73;;;;;;;18.87;33.49;96618.91;5003699;28;20465;-91
2021/05/31 11:41:59;;;;;;;4.73;2.40;;;;;;;18.98;33.62;96612.75;5006687;28;20429;-90
2021/05/31 11:44:31;;;;;;;3.13;2.37;;;;;;;19.15;34.47;96622.66;5004318;28;20493;-90
2021/05/31 11:46:58;;;;;;;2.37;2.17;;;;;;;18.86;34.77;96614.75;5005605;28;20452;-91